Time;durP1;ratioP1;P1;durP2;ratioP2;P2;SDS_P1;SDS_P2;PMS_P1;PMS_P2;Temp;Humidity;BMP_temperature;BMP_pressure;BME280_temperature;BME280_humidity;BME280_pressure;Samples;Min_cycle;Max_cycle;Signal;HPM_P1;HPM_P2
2023/03/18 00:02:05;;;;;;;9.13;1.80;;;;;;;;;;4953867;29;20374;-70
2023/03/18 00:04:32;;;;;;;7.70;1.67;;;;;;;;;;4953622;29;20023;-69
2023/03/18 00:06:58;;;;;;;9.50;1.80;;;;;;;;;;4954165;29;20027;-69
2023/03/18 00:09:25;;;;;;;16.73;2.22;;;;;;;;;;4953840;29;20027;-70
2023/03/18 00:11:52;;;;;;;5.55;1.55;;;;;;;;;;4954064;29;20027;-70
2023/03/18 00:14:19;;;;;;;11.40;1.83;;;;;;;;;;4954372;28;20511;-70
2023/03/18 00:16:45;;;;;;;9.30;1.98;;;;;;;;;;4957845;29;20023;-70
2023/03/18 00:19:12;;;;;;;9.48;2.22;;;;;;;;;;4957808;29;20027;-70
2023/03/18 00:21:38;;;;;;;14.35;2.40;;;;;;;;;;4957533;29;20031;-69
2023/03/18 00:24:04;;;;;;;6.57;1.80;;;;;;;;;;4957606;29;20023;-70
2023/03/18 00:26:31;;;;;;;11.15;2.00;;;;;;;;;;4957616;29;20028;-69
2023/03/18 00:28:57;;;;;;;9.10;1.88;;;;;;;;;;4940327;29;20054;-69
2023/03/18 00:31:24;;;;;;;8.65;1.70;;;;;;;;;;4957265;29;20054;-69
2023/03/18 00:33:51;;;;;;;10.10;2.30;;;;;;;;;;4957462;29;20041;-69
2023/03/18 00:36:24;;;;;;;10.38;2.33;;;;;;;;;;4947581;29;20046;-69
2023/03/18 00:38:56;;;;;;;9.82;1.80;;;;;;;;;;4938074;29;20422;-69
2023/03/18 00:41:26;;;;;;;9.15;1.65;;;;;;;;;;4938098;29;20024;-69
2023/03/18 00:43:53;;;;;;;12.43;2.15;;;;;;;;;;4938086;29;20395;-69
2023/03/18 00:46:23;;;;;;;7.15;2.15;;;;;;;;;;4938315;29;20316;-70
2023/03/18 00:48:50;;;;;;;12.45;2.22;;;;;;;;;;4937621;29;20028;-70
2023/03/18 00:51:19;;;;;;;13.55;2.25;;;;;;;;;;4937985;29;20058;-70
2023/03/18 00:53:47;;;;;;;8.82;1.55;;;;;;;;;;4937919;29;20028;-70
2023/03/18 00:56:14;;;;;;;11.05;1.77;;;;;;;;;;4937747;29;20415;-70
2023/03/18 00:58:40;;;;;;;11.93;2.15;;;;;;;;;;4937785;29;20020;-69
2023/03/18 01:01:08;;;;;;;8.90;1.67;;;;;;;;;;4937936;29;20042;-70
2023/03/18 01:03:34;;;;;;;13.57;2.00;;;;;;;;;;4937370;29;20496;-70
2023/03/18 01:06:01;;;;;;;8.73;1.65;;;;;;;;;;4937679;29;20024;-70
2023/03/18 01:08:29;;;;;;;7.05;1.50;;;;;;;;;;4937599;29;20032;-70
2023/03/18 01:10:55;;;;;;;8.45;1.75;;;;;;;;;;4937595;29;20021;-70
2023/03/18 01:13:22;;;;;;;8.52;1.95;;;;;;;;;;4937624;29;20042;-70
2023/03/18 01:15:49;;;;;;;6.07;1.90;;;;;;;;;;4937418;29;20505;-70
2023/03/18 01:18:16;;;;;;;8.88;2.25;;;;;;;;;;4937652;29;20024;-69
2023/03/18 01:20:43;;;;;;;10.45;2.15;;;;;;;;;;4937596;29;20030;-69
2023/03/18 01:23:10;;;;;;;18.27;2.15;;;;;;;;;;4937164;29;20023;-70
2023/03/18 01:25:37;;;;;;;12.95;2.72;;;;;;;;;;4937517;29;20020;-70
2023/03/18 01:28:04;;;;;;;10.68;2.35;;;;;;;;;;4936983;29;20032;-70
2023/03/18 01:30:30;;;;;;;10.45;2.03;;;;;;;;;;4944851;29;20531;-69
2023/03/18 01:32:57;;;;;;;8.23;1.83;;;;;;;;;;4956816;29;20058;-69
2023/03/18 01:35:24;;;;;;;10.52;2.10;;;;;;;;;;4956332;29;20396;-69
2023/03/18 01:37:52;;;;;;;5.97;1.58;;;;;;;;;;4956607;29;20085;-69
2023/03/18 01:40:19;;;;;;;12.50;1.80;;;;;;;;;;4956439;29;20023;-70
2023/03/18 01:42:55;;;;;;;8.50;1.83;;;;;;;;;;4956111;29;20101;-70
2023/03/18 01:45:30;;;;;;;10.75;2.05;;;;;;;;;;4956571;29;20019;-70
2023/03/18 01:47:57;;;;;;;8.40;2.00;;;;;;;;;;4955972;29;20085;-70
2023/03/18 01:50:35;;;;;;;4.65;1.80;;;;;;;;;;4938996;29;20038;-70
2023/03/18 01:53:13;;;;;;;10.85;2.33;;;;;;;;;;4955896;29;20026;-70
2023/03/18 01:55:40;;;;;;;10.80;2.00;;;;;;;;;;4955954;29;20395;-69
2023/03/18 01:58:16;;;;;;;9.43;2.55;;;;;;;;;;4955885;29;20023;-70
2023/03/18 02:00:44;;;;;;;10.77;2.22;;;;;;;;;;4956151;29;20021;-69
2023/03/18 02:03:11;;;;;;;9.15;2.17;;;;;;;;;;4955860;29;20046;-70
2023/03/18 02:05:39;;;;;;;8.85;1.90;;;;;;;;;;4955952;29;20027;-69
2023/03/18 02:08:07;;;;;;;10.10;2.17;;;;;;;;;;4956213;29;20089;-69
2023/03/18 02:10:33;;;;;;;7.93;2.25;;;;;;;;;;4955827;29;20035;-69
2023/03/18 02:13:02;;;;;;;11.40;1.50;;;;;;;;;;4955883;29;20031;-70
2023/03/18 02:15:29;;;;;;;6.40;1.48;;;;;;;;;;4955295;29;20021;-69
2023/03/18 02:17:59;;;;;;;6.80;1.67;;;;;;;;;;4956169;29;20081;-69
2023/03/18 02:20:43;;;;;;;5.78;1.50;;;;;;;;;;4955458;29;20411;-69
2023/03/18 02:23:21;;;;;;;7.28;1.70;;;;;;;;;;4955306;29;20032;-70
2023/03/18 02:26:08;;;;;;;8.05;1.35;;;;;;;;;;4955354;29;20023;-69
2023/03/18 02:28:36;;;;;;;7.32;2.15;;;;;;;;;;4955423;29;20480;-69
2023/03/18 02:31:05;;;;;;;8.35;1.80;;;;;;;;;;4954916;29;20043;-69
2023/03/18 02:33:35;;;;;;;8.18;1.73;;;;;;;;;;4955213;29;20027;-69
2023/03/18 02:36:06;;;;;;;7.35;1.88;;;;;;;;;;4955307;29;20024;-69
2023/03/18 02:38:33;;;;;;;7.03;1.35;;;;;;;;;;4954207;28;20023;-69
2023/03/18 02:40:59;;;;;;;6.38;1.88;;;;;;;;;;4955031;29;20411;-69
2023/03/18 02:43:26;;;;;;;8.15;2.20;;;;;;;;;;4955025;29;20119;-70
2023/03/18 02:46:12;;;;;;;4.80;1.27;;;;;;;;;;4954979;29;20024;-69
2023/03/18 02:48:41;;;;;;;4.15;1.63;;;;;;;;;;4955242;29;20035;-69
2023/03/18 02:51:07;;;;;;;5.55;1.45;;;;;;;;;;4954825;29;20041;-69
2023/03/18 02:53:34;;;;;;;7.30;2.08;;;;;;;;;;4953854;29;20077;-69
2023/03/18 02:56:00;;;;;;;4.28;1.73;;;;;;;;;;4953797;29;20085;-69
2023/03/18 02:58:27;;;;;;;6.15;1.65;;;;;;;;;;4954627;29;20027;-70
2023/03/18 03:00:54;;;;;;;6.03;1.63;;;;;;;;;;4954912;29;20047;-69
2023/03/18 03:03:21;;;;;;;4.78;1.55;;;;;;;;;;4954642;29;20035;-70
2023/03/18 03:05:47;;;;;;;6.55;1.67;;;;;;;;;;4955250;29;20037;-70
2023/03/18 03:08:14;;;;;;;8.30;1.85;;;;;;;;;;4954642;29;20089;-70
2023/03/18 03:10:41;;;;;;;5.68;1.33;;;;;;;;;;4954992;29;20024;-69
2023/03/18 03:13:08;;;;;;;5.18;1.67;;;;;;;;;;4954546;29;20051;-69
2023/03/18 03:15:35;;;;;;;6.60;1.48;;;;;;;;;;4954656;29;20023;-70
2023/03/18 03:18:02;;;;;;;7.72;1.92;;;;;;;;;;4954735;29;20041;-69
2023/03/18 03:20:32;;;;;;;6.20;1.50;;;;;;;;;;4954374;29;20026;-69
2023/03/18 03:22:59;;;;;;;10.00;1.70;;;;;;;;;;4954206;29;20039;-69
2023/03/18 03:25:26;;;;;;;6.85;1.70;;;;;;;;;;4954364;29;20031;-70
2023/03/18 03:27:53;;;;;;;8.68;1.98;;;;;;;;;;4954052;29;20027;-69
2023/03/18 03:30:20;;;;;;;12.73;2.10;;;;;;;;;;4937166;29;20047;-69
2023/03/18 03:32:46;;;;;;;10.82;1.65;;;;;;;;;;4954378;29;20508;-69
2023/03/18 03:35:14;;;;;;;8.82;1.67;;;;;;;;;;4954245;29;20035;-69
2023/03/18 03:37:41;;;;;;;7.03;1.38;;;;;;;;;;4954468;29;20023;-69
2023/03/18 03:40:08;;;;;;;4.93;1.40;;;;;;;;;;4954018;29;20065;-69
2023/03/18 03:42:34;;;;;;;6.25;1.50;;;;;;;;;;4953949;29;20049;-69
2023/03/18 03:45:01;;;;;;;10.30;1.60;;;;;;;;;;4954114;29;20023;-69
2023/03/18 03:47:27;;;;;;;5.65;1.67;;;;;;;;;;4954342;29;20035;-69
2023/03/18 03:49:53;;;;;;;6.05;2.00;;;;;;;;;;4953823;28;20016;-69
2023/03/18 03:52:20;;;;;;;7.80;2.20;;;;;;;;;;4937249;29;20113;-70
2023/03/18 03:54:47;;;;;;;8.65;1.70;;;;;;;;;;4954001;29;20449;-70
2023/03/18 03:57:13;;;;;;;6.93;1.52;;;;;;;;;;4936900;29;20031;-70
2023/03/18 03:59:39;;;;;;;9.55;1.60;;;;;;;;;;4953917;29;20023;-70
2023/03/18 04:02:06;;;;;;;10.18;1.83;;;;;;;;;;4953927;29;20038;-70
2023/03/18 04:04:32;;;;;;;9.02;1.77;;;;;;;;;;4954021;29;20061;-69
2023/03/18 04:06:59;;;;;;;10.27;1.50;;;;;;;;;;4954242;29;20038;-69
2023/03/18 04:09:25;;;;;;;4.50;1.60;;;;;;;;;;4954063;29;20044;-69
2023/03/18 04:11:51;;;;;;;9.18;1.63;;;;;;;;;;4953926;29;20034;-69
2023/03/18 04:14:18;;;;;;;9.82;1.55;;;;;;;;;;4953676;29;20020;-69
2023/03/18 04:16:45;;;;;;;8.55;1.63;;;;;;;;;;4953844;29;20027;-69
2023/03/18 04:19:11;;;;;;;6.22;1.40;;;;;;;;;;4953836;29;20472;-70
2023/03/18 04:21:38;;;;;;;5.90;1.55;;;;;;;;;;4936435;29;20391;-69
2023/03/18 04:24:05;;;;;;;13.77;1.70;;;;;;;;;;4954314;29;20023;-69
2023/03/18 04:26:31;;;;;;;4.88;1.63;;;;;;;;;;4953778;29;20030;-70
2023/03/18 04:28:58;;;;;;;6.50;1.58;;;;;;;;;;4952575;29;20035;-69
2023/03/18 04:31:24;;;;;;;8.38;1.80;;;;;;;;;;4953526;29;20113;-70
2023/03/18 04:33:50;;;;;;;8.48;1.83;;;;;;;;;;4953588;29;20023;-70
2023/03/18 04:36:17;;;;;;;7.25;1.75;;;;;;;;;;4953612;29;20399;-69
2023/03/18 04:38:43;;;;;;;4.43;1.30;;;;;;;;;;4953709;29;20031;-69
2023/03/18 04:41:09;;;;;;;6.47;2.25;;;;;;;;;;4953383;29;20019;-69
2023/03/18 04:43:36;;;;;;;8.27;1.52;;;;;;;;;;4953434;29;20039;-70
2023/03/18 04:46:02;;;;;;;12.27;2.03;;;;;;;;;;4953624;29;20411;-69
2023/03/18 04:48:29;;;;;;;9.35;1.90;;;;;;;;;;4953483;29;20023;-70
2023/03/18 04:50:55;;;;;;;6.57;1.70;;;;;;;;;;4953512;29;20447;-70
2023/03/18 04:53:22;;;;;;;4.72;1.70;;;;;;;;;;4952287;29;20031;-69
2023/03/18 04:55:50;;;;;;;5.18;1.50;;;;;;;;;;4953186;29;20117;-70
2023/03/18 04:58:17;;;;;;;6.07;1.38;;;;;;;;;;4953377;29;20078;-70
2023/03/18 05:00:43;;;;;;;8.45;1.58;;;;;;;;;;4953480;28;20034;-70
2023/03/18 05:03:11;;;;;;;7.25;1.77;;;;;;;;;;4956457;29;20039;-69
2023/03/18 05:05:37;;;;;;;10.63;1.83;;;;;;;;;;4957197;29;20046;-69
2023/03/18 05:08:03;;;;;;;7.15;1.55;;;;;;;;;;4956731;29;20460;-70
2023/03/18 05:10:30;;;;;;;3.38;1.42;;;;;;;;;;4956622;29;20070;-69
2023/03/18 05:12:56;;;;;;;6.38;2.15;;;;;;;;;;4956714;29;20028;-70
2023/03/18 05:15:22;;;;;;;10.52;1.90;;;;;;;;;;4956600;29;20023;-69
2023/03/18 05:17:49;;;;;;;6.25;1.48;;;;;;;;;;4956644;29;20034;-70
2023/03/18 05:20:15;;;;;;;8.65;2.00;;;;;;;;;;4956488;29;20031;-69
2023/03/18 05:22:42;;;;;;;9.93;1.80;;;;;;;;;;4956503;29;20500;-69
2023/03/18 05:25:10;;;;;;;6.75;1.60;;;;;;;;;;4956192;29;20029;-69
2023/03/18 05:27:39;;;;;;;7.25;1.30;;;;;;;;;;4939325;29;20514;-69
2023/03/18 05:30:06;;;;;;;3.67;1.38;;;;;;;;;;4956307;29;20029;-69
2023/03/18 05:32:32;;;;;;;13.32;2.25;;;;;;;;;;4956379;29;20035;-69
2023/03/18 05:34:59;;;;;;;5.80;1.40;;;;;;;;;;4956314;29;20031;-69
2023/03/18 05:37:25;;;;;;;7.57;1.90;;;;;;;;;;4956714;29;20031;-70
2023/03/18 05:39:52;;;;;;;4.97;1.60;;;;;;;;;;4956161;29;20400;-69
2023/03/18 05:42:19;;;;;;;7.10;1.40;;;;;;;;;;4955955;29;20038;-70
2023/03/18 05:44:45;;;;;;;6.00;1.50;;;;;;;;;;4956125;29;20035;-69
2023/03/18 05:47:12;;;;;;;7.53;1.65;;;;;;;;;;4956221;29;20027;-69
2023/03/18 05:49:38;;;;;;;6.07;1.60;;;;;;;;;;4956341;29;20023;-69
2023/03/18 05:52:05;;;;;;;6.15;1.60;;;;;;;;;;4955990;29;20034;-70
2023/03/18 05:54:31;;;;;;;8.30;1.95;;;;;;;;;;4955739;29;20025;-70
2023/03/18 05:56:58;;;;;;;4.82;1.45;;;;;;;;;;4956042;29;20027;-69
2023/03/18 05:59:24;;;;;;;6.28;1.83;;;;;;;;;;4955818;29;20028;-69
2023/03/18 06:01:52;;;;;;;5.95;1.83;;;;;;;;;;4955703;29;20038;-69
2023/03/18 06:04:19;;;;;;;8.35;1.70;;;;;;;;;;4955682;29;20028;-69
2023/03/18 06:06:45;;;;;;;13.45;2.35;;;;;;;;;;4955648;29;20054;-70
2023/03/18 06:09:13;;;;;;;5.80;2.08;;;;;;;;;;4955728;29;20039;-69
2023/03/18 06:11:39;;;;;;;5.47;2.08;;;;;;;;;;4955807;29;20507;-69
2023/03/18 06:14:06;;;;;;;9.88;2.53;;;;;;;;;;4955353;28;20023;-70
2023/03/18 06:16:33;;;;;;;7.20;1.90;;;;;;;;;;4955604;29;20024;-69
2023/03/18 06:19:01;;;;;;;7.40;2.00;;;;;;;;;;4955895;29;20027;-69
2023/03/18 06:21:28;;;;;;;6.85;2.25;;;;;;;;;;4955638;29;20095;-69
2023/03/18 06:23:54;;;;;;;5.60;1.80;;;;;;;;;;4938257;29;20039;-69
2023/03/18 06:26:20;;;;;;;5.93;1.45;;;;;;;;;;4955238;29;20391;-69
2023/03/18 06:28:47;;;;;;;5.88;1.55;;;;;;;;;;4955752;29;20023;-69
2023/03/18 06:31:13;;;;;;;6.38;1.73;;;;;;;;;;4955395;28;20043;-70
2023/03/18 06:33:40;;;;;;;9.23;1.85;;;;;;;;;;4938068;29;20085;-69
2023/03/18 06:36:07;;;;;;;6.85;2.17;;;;;;;;;;4955164;29;20392;-70
2023/03/18 06:38:33;;;;;;;6.40;2.40;;;;;;;;;;4955214;29;20035;-69
2023/03/18 06:41:00;;;;;;;8.07;2.42;;;;;;;;;;4954985;29;20023;-70
2023/03/18 06:43:27;;;;;;;5.18;2.30;;;;;;;;;;4955090;29;20045;-69
2023/03/18 06:45:53;;;;;;;11.73;2.45;;;;;;;;;;4955057;29;20443;-69
2023/03/18 06:48:20;;;;;;;5.60;1.92;;;;;;;;;;4955219;29;20035;-70
2023/03/18 06:50:46;;;;;;;8.25;1.92;;;;;;;;;;4954705;29;20400;-70
2023/03/18 06:53:13;;;;;;;7.00;1.85;;;;;;;;;;4954880;29;20038;-70
2023/03/18 06:55:40;;;;;;;5.03;1.40;;;;;;;;;;4954967;29;20045;-69
2023/03/18 06:58:06;;;;;;;6.78;1.50;;;;;;;;;;4954749;29;20022;-70
2023/03/18 07:00:33;;;;;;;5.78;1.85;;;;;;;;;;4955381;29;20027;-70
2023/03/18 07:03:00;;;;;;;11.25;1.77;;;;;;;;;;4954640;29;20035;-69
2023/03/18 07:05:26;;;;;;;8.30;2.10;;;;;;;;;;4954672;29;20023;-70
2023/03/18 07:07:53;;;;;;;6.60;2.33;;;;;;;;;;4954742;29;20035;-69
2023/03/18 07:10:22;;;;;;;4.78;1.80;;;;;;;;;;4954720;29;20049;-69
2023/03/18 07:12:49;;;;;;;4.85;1.58;;;;;;;;;;4954781;29;20033;-69
2023/03/18 07:15:16;;;;;;;4.20;1.48;;;;;;;;;;4937446;29;20380;-69
2023/03/18 07:17:43;;;;;;;5.20;1.50;;;;;;;;;;4954469;29;20027;-69
2023/03/18 07:20:10;;;;;;;4.85;1.23;;;;;;;;;;4954366;29;20023;-69
2023/03/18 07:22:36;;;;;;;10.32;1.90;;;;;;;;;;4954170;29;20051;-69
2023/03/18 07:25:03;;;;;;;5.28;1.90;;;;;;;;;;4953924;28;20029;-70
2023/03/18 07:27:30;;;;;;;8.77;1.77;;;;;;;;;;4954342;29;20029;-69
2023/03/18 07:29:56;;;;;;;6.25;1.88;;;;;;;;;;4954331;29;20019;-70
2023/03/18 07:32:23;;;;;;;6.00;2.05;;;;;;;;;;4954254;29;20062;-69
2023/03/18 07:34:49;;;;;;;6.68;2.00;;;;;;;;;;4954412;29;20093;-69
2023/03/18 07:37:15;;;;;;;4.15;1.75;;;;;;;;;;4954330;29;20026;-69
2023/03/18 07:39:45;;;;;;;5.57;1.70;;;;;;;;;;4954427;29;20039;-69
2023/03/18 07:42:12;;;;;;;6.68;1.73;;;;;;;;;;4953861;29;20043;-69
2023/03/18 07:44:38;;;;;;;7.88;2.33;;;;;;;;;;4954288;29;20385;-69
2023/03/18 07:47:04;;;;;;;6.57;1.95;;;;;;;;;;4954177;29;20031;-69
2023/03/18 07:49:31;;;;;;;6.25;2.60;;;;;;;;;;4953985;29;20077;-70
2023/03/18 07:51:57;;;;;;;3.75;1.80;;;;;;;;;;4954135;29;20023;-69
2023/03/18 07:54:24;;;;;;;10.88;1.90;;;;;;;;;;4954191;29;20034;-69
2023/03/18 07:56:51;;;;;;;8.30;1.98;;;;;;;;;;4954330;29;20027;-69
2023/03/18 07:59:18;;;;;;;10.25;2.80;;;;;;;;;;4954090;29;20439;-69
2023/03/18 08:01:44;;;;;;;6.15;2.00;;;;;;;;;;4954089;29;20097;-69
2023/03/18 08:04:11;;;;;;;6.93;1.70;;;;;;;;;;4954135;29;20041;-69
2023/03/18 08:06:38;;;;;;;7.03;2.00;;;;;;;;;;4953915;29;20023;-69
2023/03/18 08:09:04;;;;;;;9.40;2.00;;;;;;;;;;4954273;29;20031;-69
2023/03/18 08:11:32;;;;;;;7.97;2.42;;;;;;;;;;4953995;29;20032;-69
2023/03/18 08:13:58;;;;;;;8.52;2.42;;;;;;;;;;4954059;29;20038;-69
2023/03/18 08:16:25;;;;;;;5.18;1.60;;;;;;;;;;4945905;29;20027;-70
2023/03/18 08:18:52;;;;;;;4.32;1.60;;;;;;;;;;4953763;29;20023;-69
2023/03/18 08:21:19;;;;;;;6.78;1.70;;;;;;;;;;4952834;29;20033;-69
2023/03/18 08:23:46;;;;;;;4.70;1.67;;;;;;;;;;4953603;29;20047;-69
2023/03/18 08:26:12;;;;;;;5.20;1.80;;;;;;;;;;4953787;29;20019;-70
2023/03/18 08:28:39;;;;;;;12.13;2.20;;;;;;;;;;4936627;29;20055;-70
2023/03/18 08:31:05;;;;;;;9.00;1.95;;;;;;;;;;4944308;29;20044;-70
2023/03/18 08:33:31;;;;;;;6.78;1.92;;;;;;;;;;4934195;29;20035;-69
2023/03/18 08:35:58;;;;;;;4.65;1.60;;;;;;;;;;4936409;29;20032;-69
2023/03/18 08:38:25;;;;;;;4.38;1.60;;;;;;;;;;4938438;29;20038;-69
2023/03/18 08:40:51;;;;;;;6.22;1.63;;;;;;;;;;4938342;29;20016;-69
2023/03/18 08:43:20;;;;;;;6.75;1.80;;;;;;;;;;4937914;29;20493;-70
2023/03/18 08:45:51;;;;;;;6.85;1.60;;;;;;;;;;4938392;29;20034;-70
2023/03/18 08:48:17;;;;;;;8.43;2.00;;;;;;;;;;4937843;29;20031;-69
2023/03/18 08:50:44;;;;;;;10.90;1.70;;;;;;;;;;4938127;29;20404;-70
2023/03/18 08:53:10;;;;;;;9.77;1.73;;;;;;;;;;4937918;29;20023;-70
2023/03/18 08:55:36;;;;;;;7.30;2.38;;;;;;;;;;4937914;29;20033;-69
2023/03/18 08:58:04;;;;;;;6.82;1.80;;;;;;;;;;4938543;29;20042;-69
2023/03/18 09:00:31;;;;;;;11.10;2.20;;;;;;;;;;4937708;29;20443;-70
2023/03/18 09:02:57;;;;;;;7.30;2.00;;;;;;;;;;4937496;29;20043;-69
2023/03/18 09:05:24;;;;;;;8.82;2.17;;;;;;;;;;4937786;29;20036;-70
2023/03/18 09:07:52;;;;;;;5.70;1.83;;;;;;;;;;4937655;29;20028;-69
2023/03/18 09:10:18;;;;;;;6.20;1.90;;;;;;;;;;4937736;29;20074;-69
2023/03/18 09:12:45;;;;;;;10.23;2.85;;;;;;;;;;4937668;29;20039;-69
2023/03/18 09:15:13;;;;;;;10.50;2.30;;;;;;;;;;4937405;29;20392;-69
2023/03/18 09:17:40;;;;;;;6.55;2.00;;;;;;;;;;4937369;29;20024;-70
2023/03/18 09:20:07;;;;;;;13.13;2.13;;;;;;;;;;4920394;29;20042;-70
2023/03/18 09:22:34;;;;;;;12.00;2.28;;;;;;;;;;4937629;29;20016;-69
2023/03/18 09:25:00;;;;;;;5.00;1.80;;;;;;;;;;4937309;29;20444;-70
2023/03/18 09:27:27;;;;;;;9.25;2.38;;;;;;;;;;4937364;29;20024;-69
2023/03/18 09:29:53;;;;;;;8.45;2.97;;;;;;;;;;4936907;29;20031;-69
2023/03/18 09:32:19;;;;;;;7.82;2.40;;;;;;;;;;4955959;29;20047;-69
2023/03/18 09:34:46;;;;;;;6.70;2.38;;;;;;;;;;4956596;29;20035;-70
2023/03/18 09:37:13;;;;;;;10.60;3.58;;;;;;;;;;4956283;29;20400;-69
2023/03/18 09:39:42;;;;;;;12.77;3.17;;;;;;;;;;4956506;29;20028;-70
2023/03/18 09:42:16;;;;;;;8.75;2.28;;;;;;;;;;4938815;29;20035;-69
2023/03/18 09:44:42;;;;;;;21.65;2.67;;;;;;;;;;4956332;29;20031;-69
2023/03/18 09:47:27;;;;;;;7.22;2.42;;;;;;;;;;4955610;28;20027;-70
2023/03/18 09:50:09;;;;;;;14.80;6.18;;;;;;;;;;4956163;29;20023;-70
2023/03/18 09:52:38;;;;;;;25.92;15.43;;;;;;;;;;4955976;29;20023;-69
2023/03/18 09:55:05;;;;;;;11.45;3.38;;;;;;;;;;4956324;29;20039;-69
2023/03/18 09:57:43;;;;;;;7.40;2.53;;;;;;;;;;4955804;29;20023;-69
2023/03/18 10:00:23;;;;;;;8.10;2.83;;;;;;;;;;4955693;29;20035;-70
2023/03/18 10:02:52;;;;;;;14.40;4.53;;;;;;;;;;4955782;29;20388;-70
2023/03/18 10:05:31;;;;;;;8.82;1.92;;;;;;;;;;4956135;29;20033;-69
2023/03/18 10:08:00;;;;;;;8.70;1.70;;;;;;;;;;4955635;29;20041;-70
2023/03/18 10:10:33;;;;;;;7.18;1.98;;;;;;;;;;4956024;29;20035;-70
2023/03/18 10:13:06;;;;;;;8.43;1.92;;;;;;;;;;4955788;29;20054;-69
2023/03/18 10:15:38;;;;;;;192.57;97.28;;;;;;;;;;4955394;29;20031;-70
2023/03/18 10:18:14;;;;;;;54.15;27.38;;;;;;;;;;4955403;29;20488;-69
2023/03/18 10:20:47;;;;;;;9.20;2.97;;;;;;;;;;4955997;29;20035;-70
2023/03/18 10:23:21;;;;;;;10.25;1.80;;;;;;;;;;4954165;29;20051;-70
2023/03/18 10:25:53;;;;;;;11.05;2.00;;;;;;;;;;4955423;29;20030;-70
2023/03/18 10:28:26;;;;;;;8.00;1.88;;;;;;;;;;4955460;29;20027;-69
2023/03/18 10:30:58;;;;;;;4.85;1.60;;;;;;;;;;4955108;29;20049;-69
2023/03/18 10:33:27;;;;;;;10.07;1.70;;;;;;;;;;4955151;29;20035;-69
2023/03/18 10:35:58;;;;;;;5.57;1.90;;;;;;;;;;4955563;29;20074;-69
2023/03/18 10:38:30;;;;;;;11.45;2.40;;;;;;;;;;4955120;29;20030;-69
2023/03/18 10:40:56;;;;;;;6.40;1.98;;;;;;;;;;4955348;29;20027;-70
2023/03/18 10:43:24;;;;;;;12.55;2.00;;;;;;;;;;4954826;29;20386;-70
2023/03/18 10:46:01;;;;;;;9.85;2.65;;;;;;;;;;4955130;29;20023;-70
2023/03/18 10:48:32;;;;;;;8.23;1.70;;;;;;;;;;4954986;29;20038;-70
2023/03/18 10:51:09;;;;;;;9.43;2.13;;;;;;;;;;4955242;29;20027;-69
2023/03/18 10:53:41;;;;;;;9.45;2.30;;;;;;;;;;4954816;29;20507;-70
2023/03/18 10:56:09;;;;;;;9.02;1.98;;;;;;;;;;4954588;29;20023;-70
2023/03/18 10:58:37;;;;;;;11.23;2.72;;;;;;;;;;4954171;28;20027;-70
2023/03/18 11:01:06;;;;;;;12.57;1.70;;;;;;;;;;4954363;29;20035;-68
2023/03/18 11:03:34;;;;;;;14.55;2.10;;;;;;;;;;4954485;29;20437;-69
2023/03/18 11:06:01;;;;;;;9.82;1.60;;;;;;;;;;4954681;29;20388;-69
2023/03/18 11:08:39;;;;;;;10.65;1.50;;;;;;;;;;4954819;29;20031;-69
2023/03/18 11:11:21;;;;;;;6.97;1.90;;;;;;;;;;4954562;29;20032;-70
2023/03/18 11:13:49;;;;;;;6.70;1.60;;;;;;;;;;4954568;29;20031;-69
2023/03/18 11:16:29;;;;;;;11.80;1.92;;;;;;;;;;4954397;29;20507;-70
2023/03/18 11:18:56;;;;;;;6.53;1.70;;;;;;;;;;4954508;29;20053;-69
2023/03/18 11:21:23;;;;;;;11.38;2.33;;;;;;;;;;4954703;29;20023;-70
2023/03/18 11:24:06;;;;;;;7.72;1.92;;;;;;;;;;4954148;29;20526;-70
2023/03/18 11:26:42;;;;;;;7.18;1.73;;;;;;;;;;4953994;29;20037;-69
2023/03/18 11:29:31;;;;;;;10.85;2.00;;;;;;;;;;4954387;29;20387;-70
2023/03/18 11:31:58;;;;;;;8.85;1.77;;;;;;;;;;4954272;29;20459;-70
2023/03/18 11:34:25;;;;;;;7.30;1.65;;;;;;;;;;4954521;29;20027;-69
2023/03/18 11:37:03;;;;;;;5.93;1.40;;;;;;;;;;4954333;29;20015;-70
2023/03/18 11:39:37;;;;;;;10.13;2.15;;;;;;;;;;4954241;29;20023;-69
2023/03/18 11:42:25;;;;;;;13.10;2.50;;;;;;;;;;4953916;29;20038;-69
2023/03/18 11:44:55;;;;;;;5.70;1.58;;;;;;;;;;4954521;29;20405;-69
2023/03/18 11:47:23;;;;;;;7.57;1.45;;;;;;;;;;4954678;29;20023;-69
2023/03/18 11:49:49;;;;;;;6.95;1.58;;;;;;;;;;4954283;29;20030;-69
2023/03/18 11:52:28;;;;;;;5.53;1.55;;;;;;;;;;4953994;29;20028;-70
2023/03/18 11:54:54;;;;;;;6.35;1.65;;;;;;;;;;4954174;29;20031;-70
2023/03/18 11:57:24;;;;;;;11.13;2.03;;;;;;;;;;4953991;29;20023;-69
2023/03/18 11:59:58;;;;;;;8.88;1.65;;;;;;;;;;4954115;29;20023;-69
2023/03/18 12:02:27;;;;;;;7.20;1.85;;;;;;;;;;4953684;29;20031;-69
2023/03/18 12:05:08;;;;;;;9.25;2.03;;;;;;;;;;4954215;29;20029;-70
2023/03/18 12:07:46;;;;;;;6.82;1.60;;;;;;;;;;4953968;29;20034;-70
2023/03/18 12:10:19;;;;;;;6.25;1.80;;;;;;;;;;4954353;28;20027;-70
2023/03/18 12:12:54;;;;;;;5.40;1.60;;;;;;;;;;4957900;29;20031;-70
2023/03/18 12:15:27;;;;;;;7.82;1.85;;;;;;;;;;4957708;29;20028;-69
2023/03/18 12:18:02;;;;;;;4.65;1.50;;;;;;;;;;4957815;29;20024;-69
2023/03/18 12:20:41;;;;;;;9.93;1.60;;;;;;;;;;4957586;29;20030;-69
2023/03/18 12:23:10;;;;;;;6.82;1.77;;;;;;;;;;4957625;29;20035;-70
2023/03/18 12:25:49;;;;;;;5.10;1.33;;;;;;;;;;4957334;29;20019;-69
2023/03/18 12:28:32;;;;;;;9.02;1.70;;;;;;;;;;4957496;29;20077;-70
2023/03/18 12:31:21;;;;;;;6.93;1.65;;;;;;;;;;4957373;29;20050;-69
2023/03/18 12:33:49;;;;;;;4.20;1.38;;;;;;;;;;4952382;29;20035;-69
2023/03/18 12:36:34;;;;;;;6.13;1.85;;;;;;;;;;4947667;29;20030;-69
2023/03/18 12:39:04;;;;;;;7.18;1.90;;;;;;;;;;4937934;29;20027;-70
2023/03/18 12:41:39;;;;;;;7.97;2.08;;;;;;;;;;4921249;29;20031;-69
2023/03/18 12:44:10;;;;;;;7.88;1.40;;;;;;;;;;4937821;29;20046;-70
2023/03/18 12:46:45;;;;;;;8.05;1.80;;;;;;;;;;4938394;29;20024;-69
2023/03/18 12:49:12;;;;;;;5.50;1.50;;;;;;;;;;4938056;29;20028;-69
2023/03/18 12:51:59;;;;;;;6.32;1.30;;;;;;;;;;4937999;29;20027;-69
2023/03/18 12:54:31;;;;;;;7.13;1.48;;;;;;;;;;4937522;29;20036;-69
2023/03/18 12:57:01;;;;;;;7.03;1.90;;;;;;;;;;4936730;29;20078;-70
2023/03/18 12:59:32;;;;;;;8.60;1.95;;;;;;;;;;4937732;29;20507;-69
2023/03/18 13:02:17;;;;;;;5.05;1.70;;;;;;;;;;4938104;29;20035;-69
2023/03/18 13:04:56;;;;;;;9.52;1.40;;;;;;;;;;4937961;29;20036;-69
2023/03/18 13:07:35;;;;;;;6.40;1.50;;;;;;;;;;4937591;29;20022;-69
2023/03/18 13:10:13;;;;;;;5.22;1.63;;;;;;;;;;4937739;29;20027;-70
2023/03/18 13:12:41;;;;;;;4.00;1.30;;;;;;;;;;4937498;29;20019;-69
2023/03/18 13:15:26;;;;;;;7.80;1.80;;;;;;;;;;4937613;29;20027;-69
2023/03/18 13:17:57;;;;;;;6.65;1.63;;;;;;;;;;4937995;29;20031;-69
2023/03/18 13:20:23;;;;;;;7.38;1.83;;;;;;;;;;4937567;29;20041;-69
2023/03/18 13:22:56;;;;;;;8.13;2.05;;;;;;;;;;4935963;29;20027;-70
2023/03/18 13:25:22;;;;;;;9.23;1.58;;;;;;;;;;4937807;29;20075;-69
2023/03/18 13:27:57;;;;;;;7.55;1.65;;;;;;;;;;4937210;29;20400;-70
2023/03/18 13:30:27;;;;;;;5.78;1.65;;;;;;;;;;4943882;29;20039;-69
2023/03/18 13:32:53;;;;;;;6.53;2.72;;;;;;;;;;4956336;29;20039;-69
2023/03/18 13:35:49;;;;;;;7.72;2.28;;;;;;;;;;4956630;29;20045;-69
2023/03/18 13:38:27;;;;;;;13.13;1.95;;;;;;;;;;4954915;29;20031;-70
2023/03/18 13:40:55;;;;;;;4.60;1.75;;;;;;;;;;4956182;29;20031;-69
2023/03/18 13:43:22;;;;;;;9.32;2.15;;;;;;;;;;4956110;29;20496;-69
2023/03/18 13:45:51;;;;;;;5.30;1.70;;;;;;;;;;4956307;29;20020;-70
2023/03/18 13:48:26;;;;;;;9.75;1.83;;;;;;;;;;4956035;29;20027;-69
2023/03/18 13:50:53;;;;;;;5.15;1.65;;;;;;;;;;4938709;29;20030;-70
2023/03/18 13:53:34;;;;;;;5.20;2.05;;;;;;;;;;4956477;29;20078;-70
2023/03/18 13:56:03;;;;;;;8.17;1.73;;;;;;;;;;4956321;29;20028;-70
2023/03/18 13:58:29;;;;;;;5.63;1.90;;;;;;;;;;4955970;29;20031;-70
2023/03/18 14:00:56;;;;;;;8.13;1.60;;;;;;;;;;4955830;29;20027;-70
2023/03/18 14:03:29;;;;;;;7.88;1.80;;;;;;;;;;4955851;29;20090;-69
2023/03/18 14:06:05;;;;;;;9.48;2.05;;;;;;;;;;4955595;29;20488;-70
2023/03/18 14:08:32;;;;;;;5.03;1.70;;;;;;;;;;4955782;29;20027;-69
2023/03/18 14:11:13;;;;;;;9.20;2.60;;;;;;;;;;4955942;29;20042;-70
2023/03/18 14:13:40;;;;;;;5.97;2.17;;;;;;;;;;4955991;29;20057;-69
2023/03/18 14:16:09;;;;;;;12.25;2.38;;;;;;;;;;4955654;29;20605;-69
2023/03/18 14:18:36;;;;;;;12.93;5.60;;;;;;;;;;4955605;29;20481;-69
2023/03/18 14:21:04;;;;;;;14.15;6.47;;;;;;;;;;4954167;29;20035;-69
2023/03/18 14:23:36;;;;;;;22.90;15.15;;;;;;;;;;4955394;29;20035;-70
2023/03/18 14:26:28;;;;;;;23.85;12.90;;;;;;;;;;4955511;29;20026;-69
2023/03/18 14:29:08;;;;;;;13.65;5.93;;;;;;;;;;4954233;29;20396;-69
2023/03/18 14:31:41;;;;;;;13.80;4.70;;;;;;;;;;4937929;29;20043;-69
2023/03/18 14:34:17;;;;;;;4.07;1.98;;;;;;;;;;4955152;28;20031;-69
2023/03/18 14:36:52;;;;;;;7.45;2.00;;;;;;;;;;4955454;29;20046;-69
2023/03/18 14:39:24;;;;;;;9.32;2.30;;;;;;;;;;4955229;29;20027;-69
2023/03/18 14:41:52;;;;;;;7.70;2.75;;;;;;;;;;4955397;29;20033;-70
2023/03/18 14:44:25;;;;;;;7.88;2.45;;;;;;;;;;4955094;29;20043;-69
2023/03/18 14:46:55;;;;;;;10.15;3.10;;;;;;;;;;4955068;29;20027;-69
2023/03/18 14:49:35;;;;;;;10.68;2.10;;;;;;;;;;4954788;29;20023;-70
2023/03/18 14:52:16;;;;;;;6.43;2.40;;;;;;;;;;4955120;29;20027;-70
2023/03/18 14:54:44;;;;;;;8.48;2.42;;;;;;;;;;4954932;29;20496;-70